Time;durP1;ratioP1;P1;durP2;ratioP2;P2;SDS_P1;SDS_P2;PMS_P1;PMS_P2;Temp;Humidity;BMP_temperature;BMP_pressure;BME280_temperature;BME280_humidity;BME280_pressure;Samples;Min_cycle;Max_cycle;Signal;HPM_P1;HPM_P2
2022/06/02 00:00:15;;;;;;;2.92;1.42;;;10.70;99.90;;;-146.41;100.00;57768.22;5009723;28;20575;-69
2022/06/02 00:03:29;;;;;;;3.83;1.20;;;10.60;99.90;;;-146.41;100.00;57768.22;4987287;28;20042;-69
2022/06/02 00:06:53;;;;;;;4.20;1.23;;;10.60;99.90;;;-146.41;100.00;57768.22;4987551;28;20049;-69
2022/06/02 00:10:02;;;;;;;3.42;1.15;;;10.50;99.90;;;-146.41;100.00;57768.22;4944734;28;20077;-69
2022/06/02 00:12:38;;;;;;;2.85;1.25;;;10.50;99.90;;;-146.41;100.00;57768.22;5002045;28;20071;-68
2022/06/02 00:15:34;;;;;;;4.50;1.30;;;10.50;99.90;;;-146.41;100.00;57768.22;5012082;28;20136;-67
2022/06/02 00:18:26;;;;;;;2.30;1.55;;;10.40;99.90;;;-146.41;100.00;57768.22;5009876;28;20137;-68
2022/06/02 00:21:34;;;;;;;3.70;1.70;;;10.30;99.90;;;-146.41;100.00;57768.22;4989181;28;20049;-68
2022/06/02 00:24:12;;;;;;;5.18;1.73;;;10.20;99.90;;;-146.41;100.00;57768.22;5007537;28;20401;-68
2022/06/02 00:26:55;;;;;;;2.55;1.30;;;10.20;99.90;;;-146.41;100.00;57768.22;5004411;28;20163;-68
2022/06/02 00:29:34;;;;;;;4.75;1.30;;;10.10;99.90;;;-146.41;100.00;57768.22;5006771;28;20068;-68
2022/06/02 00:32:54;;;;;;;3.60;1.20;;;10.10;99.90;;;-146.41;100.00;57768.22;4991420;28;20060;-67
2022/06/02 00:35:43;;;;;;;4.28;1.27;;;10.00;99.90;;;-146.41;100.00;57768.22;5009720;28;20137;-69
2022/06/02 00:38:38;;;;;;;4.05;1.10;;;9.90;99.90;;;-146.41;100.00;57768.22;5011151;28;20078;-69
2022/06/02 00:41:36;;;;;;;4.20;1.35;;;9.80;99.90;;;-146.41;100.00;57768.22;5009949;28;20137;-68
2022/06/02 00:44:35;;;;;;;3.92;1.38;;;9.80;99.90;;;-146.41;100.00;57768.22;5011269;28;20911;-69
2022/06/02 00:47:35;;;;;;;5.53;1.45;;;9.70;99.90;;;-146.41;100.00;57768.22;4992601;28;20049;-69
2022/06/02 00:50:13;;;;;;;3.00;1.30;;;9.70;99.90;;;-146.41;100.00;57768.22;5009362;28;20108;-69
2022/06/02 00:53:11;;;;;;;2.47;1.35;;;9.70;99.90;;;-146.41;100.00;57768.22;4993186;28;20152;-68
2022/06/02 00:59:23;;;;;;;3.28;1.60;;;9.50;99.90;;;-146.41;100.00;57768.22;5006877;28;20132;-68
2022/06/02 01:01:51;;;;;;;4.90;1.75;;;9.40;99.90;;;-146.41;100.00;57768.22;5008188;28;20523;-67
2022/06/02 01:04:21;;;;;;;3.88;1.60;;;;;;;-146.41;100.00;57768.22;5009833;28;20096;-67
2022/06/02 01:07:02;;;;;;;6.05;1.70;;;9.50;99.90;;;-146.41;100.00;57768.22;5006178;28;20155;-68
2022/06/02 01:10:03;;;;;;;3.78;1.40;;;9.50;99.90;;;-146.41;100.00;57768.22;5013498;28;20132;-68
2022/06/02 01:12:45;;;;;;;2.50;1.52;;;9.50;99.90;;;-146.41;100.00;57768.22;5000524;28;20045;-68
2022/06/02 01:15:20;;;;;;;2.55;1.17;;;9.40;99.90;;;-146.41;100.00;57768.22;5014381;28;20061;-68
2022/06/02 01:18:12;;;;;;;2.40;1.02;;;9.30;99.90;;;-146.41;100.00;57768.22;5007579;28;20050;-68
2022/06/02 01:21:15;;;;;;;1.58;1.02;;;9.30;99.90;;;-146.41;100.00;57768.22;4986154;28;20087;-67
2022/06/02 01:24:22;;;;;;;3.67;1.25;;;9.30;99.90;;;-146.41;100.00;57768.22;5005711;28;20125;-69
2022/06/02 01:27:26;;;;;;;3.67;1.20;;;9.10;99.90;;;-146.41;100.00;57768.22;5009524;28;20041;-68
2022/06/02 01:30:30;;;;;;;5.05;1.60;;;9.10;99.90;;;-146.41;100.00;57768.22;5010233;28;20049;-69
2022/06/02 01:33:02;;;;;;;5.28;1.63;;;9.00;99.90;;;-146.41;100.00;57768.22;5005849;28;20141;-68
2022/06/02 01:35:58;;;;;;;2.85;1.63;;;9.00;99.90;;;-146.41;100.00;57768.22;5013243;28;20050;-68
2022/06/02 01:38:52;;;;;;;3.42;1.20;;;9.00;99.90;;;-146.41;100.00;57768.22;5008437;28;20131;-68
2022/06/02 01:41:32;;;;;;;4.70;1.58;;;9.00;99.90;;;-146.41;100.00;57768.22;5013323;28;20628;-68
2022/06/02 01:44:14;;;;;;;5.50;1.52;;;9.00;99.90;;;-146.41;100.00;57768.22;5008154;28;20049;-68
2022/06/02 01:46:46;;;;;;;2.23;1.40;;;8.90;99.90;;;-146.41;100.00;57768.22;5009784;28;20077;-67
2022/06/02 01:49:25;;;;;;;4.40;1.48;;;8.90;99.90;;;-146.41;100.00;57768.22;4990253;28;20812;-67
2022/06/02 01:52:11;;;;;;;3.17;1.40;;;8.80;99.90;;;-146.41;100.00;57768.22;4992088;28;20144;-67
2022/06/02 01:54:56;;;;;;;2.40;1.20;;;8.80;99.90;;;-146.41;100.00;57768.22;4996082;28;20093;-68
2022/06/02 01:58:14;;;;;;;2.63;1.10;;;8.80;99.90;;;-146.41;100.00;57768.22;5009704;28;20125;-67
2022/06/02 02:00:45;;;;;;;6.10;1.73;;;8.70;99.90;;;-146.41;100.00;57768.22;5010994;28;20100;-68
2022/06/02 02:03:43;;;;;;;3.72;1.55;;;8.70;99.90;;;-146.41;100.00;57768.22;4992721;28;20077;-67
2022/06/02 02:06:29;;;;;;;5.95;2.05;;;8.70;99.90;;;-146.41;100.00;57768.22;5009141;28;20570;-67
2022/06/02 02:09:02;;;;;;;3.20;1.30;;;8.60;99.90;;;-146.41;100.00;57768.22;4994913;28;20089;-68
2022/06/02 02:11:50;;;;;;;6.03;1.55;;;8.50;99.90;;;-146.41;100.00;57768.22;5006598;28;20550;-68
2022/06/02 02:15:03;;;;;;;2.40;1.20;;;8.50;99.90;;;-146.41;100.00;57768.22;5009110;28;20073;-68
2022/06/02 02:17:36;;;;;;;3.08;1.67;;;8.40;99.90;;;-146.41;100.00;57768.22;4957464;28;20112;-67
2022/06/02 02:20:43;;;;;;;4.78;2.17;;;8.50;99.90;;;-146.41;100.00;57768.22;5009922;28;20191;-68
2022/06/02 02:23:29;;;;;;;4.43;1.90;;;8.40;99.90;;;-146.41;100.00;57768.22;4971957;28;20468;-68
2022/06/02 02:26:11;;;;;;;4.13;1.85;;;8.30;99.90;;;-146.41;100.00;57768.22;5008102;28;20107;-68
2022/06/02 02:28:47;;;;;;;4.80;1.55;;;8.30;99.90;;;-146.41;100.00;57768.22;4991688;28;20120;-69
2022/06/02 02:31:26;;;;;;;3.92;1.60;;;8.40;99.90;;;-146.41;100.00;57768.22;5012417;28;20050;-68
2022/06/02 02:34:24;;;;;;;3.50;1.35;;;8.40;99.90;;;-146.41;100.00;57768.22;5005698;28;20115;-68
2022/06/02 02:36:57;;;;;;;2.97;1.45;;;8.30;99.90;;;-146.41;100.00;57768.22;5003671;28;20092;-68
2022/06/02 02:39:41;;;;;;;3.65;1.70;;;8.30;99.90;;;-146.41;100.00;57768.22;5011662;28;20077;-68
2022/06/02 02:42:42;;;;;;;3.22;1.48;;;8.30;99.90;;;-146.41;100.00;57768.22;4994508;28;20049;-68
2022/06/02 02:45:21;;;;;;;3.72;1.67;;;8.20;99.90;;;-146.41;100.00;57768.22;5010834;28;20128;-67
2022/06/02 02:48:07;;;;;;;2.70;1.80;;;8.20;99.90;;;-146.41;100.00;57768.22;5010110;28;20364;-69
2022/06/02 02:51:03;;;;;;;4.13;2.10;;;8.10;99.90;;;-146.41;100.00;57768.22;4990833;28;20073;-69
2022/06/02 02:53:53;;;;;;;4.82;2.03;;;7.90;99.90;;;-146.41;100.00;57768.22;4974235;28;20136;-69
2022/06/02 02:56:32;;;;;;;4.07;2.03;;;7.90;99.90;;;-146.41;100.00;57768.22;4973231;28;20049;-69
2022/06/02 02:59:23;;;;;;;4.32;2.38;;;7.90;99.90;;;-146.41;100.00;57768.22;4991537;28;20127;-69
2022/06/02 03:02:05;;;;;;;2.92;1.80;;;7.90;99.90;;;-146.41;100.00;57768.22;4993698;28;20504;-68
2022/06/02 03:04:53;;;;;;;2.72;1.50;;;7.90;99.90;;;-146.41;100.00;57768.22;5013612;28;20050;-69
2022/06/02 03:07:21;;;;;;;3.65;2.20;;;7.90;99.90;;;-146.41;100.00;57768.22;5008633;28;20144;-68
2022/06/02 03:09:56;;;;;;;5.05;1.77;;;7.80;99.90;;;-146.41;100.00;57768.22;5011374;28;20089;-69
2022/06/02 03:12:39;;;;;;;4.47;2.40;;;7.70;99.90;;;-146.41;100.00;57768.22;5007344;28;20089;-69
2022/06/02 03:15:35;;;;;;;3.83;2.15;;;7.80;99.90;;;-146.41;100.00;57768.22;5012011;28;20591;-69
2022/06/02 03:18:19;;;;;;;4.45;2.40;;;7.70;99.90;;;-146.41;100.00;57768.22;4994623;28;20075;-69
2022/06/02 03:21:07;;;;;;;4.70;1.90;;;7.60;99.90;;;-146.41;100.00;57768.22;5005124;28;20089;-70
2022/06/02 03:24:02;;;;;;;4.55;1.98;;;7.60;99.90;;;-146.41;100.00;57768.22;4993308;28;20141;-69
2022/06/02 03:26:57;;;;;;;4.70;2.03;;;7.60;99.90;;;-146.41;100.00;57768.22;5004841;28;20165;-69
2022/06/02 03:29:57;;;;;;;4.45;2.20;;;7.60;99.90;;;-146.41;100.00;57768.22;4993019;28;20112;-69
2022/06/02 03:32:57;;;;;;;6.10;2.30;;;7.60;99.90;;;-146.41;100.00;57768.22;4993505;28;20076;-69
2022/06/02 03:36:09;;;;;;;3.55;2.38;;;7.60;99.90;;;-146.41;100.00;57768.22;5016294;28;20144;-69
2022/06/02 03:38:50;;;;;;;6.40;3.50;;;7.60;99.90;;;-146.41;100.00;57768.22;5005129;28;20069;-69
2022/06/02 03:42:07;;;;;;;3.38;2.30;;;7.50;99.90;;;-146.41;100.00;57768.22;5015094;28;20436;-68
2022/06/02 03:45:23;;;;;;;5.20;3.03;;;7.60;99.90;;;-146.41;100.00;57768.22;5013910;28;20136;-68
2022/06/02 03:48:24;;;;;;;5.85;3.38;;;7.50;99.90;;;-146.41;100.00;57768.22;4988549;28;20132;-69
2022/06/02 03:51:09;;;;;;;5.07;3.10;;;7.50;99.90;;;-146.41;100.00;57768.22;5004628;28;20144;-69
2022/06/02 03:54:00;;;;;;;4.63;2.70;;;7.50;99.90;;;-146.41;100.00;57768.22;5014860;28;20073;-70
2022/06/02 03:56:48;;;;;;;6.65;3.08;;;7.50;99.90;;;-146.41;100.00;57768.22;5016520;28;20443;-69
2022/06/02 03:59:56;;;;;;;6.40;3.60;;;7.60;99.90;;;-146.41;100.00;57768.22;5012010;28;20689;-70
2022/06/02 04:02:39;;;;;;;4.60;2.88;;;7.50;99.90;;;-146.41;100.00;57768.22;4990407;28;20088;-70
2022/06/02 04:05:46;;;;;;;4.38;3.17;;;7.50;99.90;;;-146.41;100.00;57768.22;5007427;28;20057;-67
2022/06/02 04:08:35;;;;;;;4.57;2.80;;;7.50;99.90;;;-146.41;100.00;57768.22;5007709;28;20145;-69
2022/06/02 04:11:24;;;;;;;3.20;2.25;;;7.50;99.90;;;-146.41;100.00;57768.22;5007591;28;20049;-69
2022/06/02 04:14:17;;;;;;;5.43;2.80;;;7.50;99.90;;;-146.41;100.00;57768.22;4994105;28;20057;-69
2022/06/02 04:17:33;;;;;;;3.95;2.70;;;7.60;99.90;;;-146.41;100.00;57768.22;5009523;28;20048;-70
2022/06/02 04:20:34;;;;;;;4.32;2.85;;;7.70;99.90;;;-146.41;100.00;57768.22;5017678;28;20454;-70
2022/06/02 04:24:04;;;;;;;5.68;3.15;;;7.80;99.90;;;-146.41;100.00;57768.22;4992395;28;20461;-67
2022/06/02 04:27:03;;;;;;;7.13;3.17;;;7.80;99.90;;;-146.41;100.00;57768.22;4904794;29;20708;-69
2022/06/02 04:29:41;;;;;;;4.82;3.47;;;7.90;99.90;;;-146.41;100.00;57768.22;5000056;28;20060;-69
2022/06/02 04:32:43;;;;;;;6.20;3.08;;;8.10;99.90;;;-146.41;100.00;57768.22;5012991;28;20073;-69
2022/06/02 04:35:38;;;;;;;7.43;3.30;;;8.20;99.90;;;-146.41;100.00;57768.22;5006807;28;20054;-69
2022/06/02 04:38:24;;;;;;;5.00;2.97;;;8.30;99.90;;;-146.41;100.00;57768.22;5008346;28;20077;-69
2022/06/02 04:41:38;;;;;;;5.25;2.60;;;8.50;99.90;;;-146.41;100.00;57768.22;4989416;28;20054;-69
2022/06/02 04:44:29;;;;;;;3.43;2.20;;;8.70;99.90;;;-146.41;100.00;57768.22;4956764;28;20085;-68
2022/06/02 04:47:12;;;;;;;5.70;2.45;;;8.90;99.90;;;-146.41;100.00;57768.22;4990074;28;20336;-69
2022/06/02 04:50:13;;;;;;;5.50;2.85;;;9.00;99.90;;;-146.41;100.00;57768.22;4992889;28;20080;-70
2022/06/02 04:52:53;;;;;;;3.92;2.88;;;9.10;99.90;;;-146.41;100.00;57768.22;5013834;28;20177;-69
2022/06/02 04:55:44;;;;;;;4.07;2.90;;;9.20;99.90;;;-146.41;100.00;57768.22;4988264;28;20406;-68
2022/06/02 04:58:29;;;;;;;7.05;2.85;;;9.30;99.90;;;-146.41;100.00;57768.22;4997669;28;20161;-69
2022/06/02 05:01:20;;;;;;;4.97;2.88;;;9.50;99.90;;;-146.41;100.00;57768.22;4993766;28;20100;-69
2022/06/02 05:04:05;;;;;;;4.53;2.78;;;9.60;99.90;;;-146.41;100.00;57768.22;4998660;28;20107;-69
2022/06/02 05:07:07;;;;;;;8.45;3.00;;;9.70;99.90;;;-146.41;100.00;57768.22;4999312;28;20472;-69
2022/06/02 05:09:55;;;;;;;5.18;2.38;;;9.80;99.90;;;-146.41;100.00;57768.22;4999550;28;20137;-69
2022/06/02 05:13:10;;;;;;;4.88;2.10;;;10.00;99.90;;;-146.41;100.00;57768.22;4997150;28;20149;-70
2022/06/02 05:16:11;;;;;;;4.47;2.80;;;10.20;99.90;;;-146.41;100.00;57768.22;4922463;28;20080;-69
2022/06/02 05:19:31;;;;;;;5.35;2.80;;;10.40;99.90;;;-146.41;100.00;57768.22;4992393;28;20730;-69
2022/06/02 05:22:31;;;;;;;3.47;2.70;;;10.50;99.90;;;-146.41;100.00;57768.22;5016112;28;20061;-68
2022/06/02 05:25:20;;;;;;;5.53;2.47;;;10.80;99.90;;;-146.41;100.00;57768.22;5015897;28;20081;-68
2022/06/02 05:28:30;;;;;;;3.38;2.30;;;11.00;99.90;;;-146.41;100.00;57768.22;4982982;28;20499;-69
2022/06/02 05:31:19;;;;;;;5.82;3.45;;;;;;;-146.41;100.00;57768.22;4997715;28;20128;-70
2022/06/02 05:34:46;;;;;;;4.97;3.08;;;11.60;99.90;;;-146.41;100.00;57768.22;4992114;28;20084;-69
2022/06/02 05:37:36;;;;;;;4.43;2.60;;;11.80;99.90;;;-146.41;100.00;57768.22;5010153;28;20133;-69
2022/06/02 05:40:35;;;;;;;5.72;3.45;;;12.10;99.90;;;-146.41;100.00;57768.22;5002101;28;20055;-69
2022/06/02 05:43:40;;;;;;;6.53;3.83;;;12.30;99.90;;;-146.41;100.00;57768.22;5014377;28;20064;-68
2022/06/02 05:46:19;;;;;;;3.88;2.70;;;12.40;99.90;;;-146.41;100.00;57768.22;4995667;28;20649;-69
2022/06/02 05:49:37;;;;;;;4.65;3.63;;;12.60;99.90;;;-146.41;100.00;57768.22;5009401;28;20128;-69
2022/06/02 05:52:43;;;;;;;4.05;2.50;;;12.80;99.90;;;-146.41;100.00;57768.22;4982832;28;20572;-69
2022/06/02 05:55:27;;;;;;;6.85;4.45;;;13.10;99.90;;;-146.41;100.00;57768.22;5010943;28;20823;-69
2022/06/02 05:58:30;;;;;;;7.07;4.60;;;13.10;99.90;;;-146.41;100.00;57768.22;5011818;28;20158;-69
2022/06/02 06:01:30;;;;;;;5.50;4.18;;;13.20;99.90;;;-146.41;100.00;57768.22;5016256;28;20077;-70
2022/06/02 06:04:41;;;;;;;9.80;4.90;;;13.20;99.90;;;-146.41;100.00;57768.22;5010205;28;20510;-69
2022/06/02 06:07:36;;;;;;;4.47;3.63;;;13.30;99.90;;;-146.41;100.00;57768.22;4983294;28;20056;-69
2022/06/02 06:10:40;;;;;;;13.88;4.15;;;13.40;99.90;;;-146.41;100.00;57768.22;4997325;28;20149;-70
2022/06/02 06:13:57;;;;;;;8.38;3.95;;;13.40;99.90;;;-146.41;100.00;57768.22;5016689;28;20056;-69
2022/06/02 06:16:39;;;;;;;6.22;2.80;;;13.50;99.90;;;-146.41;100.00;57768.22;5014639;28;20133;-69
2022/06/02 06:20:04;;;;;;;5.75;2.72;;;13.60;99.90;;;-146.41;100.00;57768.22;5011044;28;20073;-70
2022/06/02 06:22:46;;;;;;;4.57;2.30;;;13.90;99.90;;;-146.41;100.00;57768.22;4985502;28;20138;-69
2022/06/02 06:25:48;;;;;;;6.38;2.65;;;14.20;99.90;;;-146.41;100.00;57768.22;5010972;28;20092;-69
2022/06/02 06:28:19;;;;;;;6.45;1.77;;;14.30;99.90;;;-146.41;100.00;57768.22;4998481;28;20140;-69
2022/06/02 06:31:16;;;;;;;6.18;1.80;;;14.50;99.90;;;-146.41;100.00;57768.22;5012019;28;20490;-70
2022/06/02 06:33:52;;;;;;;8.98;1.88;;;14.60;99.90;;;-146.41;100.00;57768.22;4994220;28;20041;-70
2022/06/02 06:36:34;;;;;;;3.65;2.08;;;14.80;99.90;;;-146.41;100.00;57768.22;5009471;28;20274;-70
2022/06/02 06:39:10;;;;;;;3.95;2.20;;;14.80;99.90;;;-146.41;100.00;57768.22;4989132;28;20131;-70
2022/06/02 06:41:42;;;;;;;5.80;2.33;;;14.70;99.90;;;-146.41;100.00;57768.22;5002355;28;20520;-69
2022/06/02 06:44:27;;;;;;;;;;;14.90;99.90;;;-146.41;100.00;57768.22;5000917;28;20433;-69
2022/06/02 06:47:22;;;;;;;4.97;2.00;;;14.90;99.90;;;-146.41;100.00;57768.22;5005070;28;19965;-69
2022/06/02 06:50:14;;;;;;;3.35;1.75;;;14.90;99.90;;;-146.41;100.00;57768.22;4982442;28;20129;-69
2022/06/02 06:53:15;;;;;;;4.00;1.52;;;14.90;99.90;;;-146.41;100.00;57768.22;5008767;28;20413;-70
2022/06/02 06:56:30;;;;;;;4.43;2.22;;;15.20;99.90;;;-146.41;100.00;57768.22;5002545;28;20109;-69
2022/06/02 06:59:40;;;;;;;6.60;1.85;;;15.20;99.90;;;-146.41;100.00;57768.22;4979088;28;20090;-70
2022/06/02 07:02:43;;;;;;;4.88;2.03;;;15.30;99.90;;;-146.41;100.00;57768.22;4989286;28;20522;-69
2022/06/02 07:05:34;;;;;;;3.83;2.20;;;15.30;99.90;;;-146.41;100.00;57768.22;4987257;28;20058;-69
2022/06/02 07:08:34;;;;;;;5.82;1.50;;;15.30;99.90;;;-146.41;100.00;57768.22;5005809;28;20049;-70
2022/06/02 07:14:47;;;;;;;3.45;1.73;;;15.50;99.90;;;-146.41;100.00;57768.22;5003265;28;20427;-70
2022/06/02 07:17:41;;;;;;;2.80;1.27;;;15.50;99.90;;;-146.41;100.00;57768.22;4986465;28;20081;-69
2022/06/02 07:20:36;;;;;;;5.55;1.90;;;15.60;99.90;;;-146.41;100.00;57768.22;4991423;28;20049;-69
2022/06/02 07:23:39;;;;;;;3.70;1.60;;;15.70;99.90;;;-146.41;100.00;57768.22;5002623;28;20136;-70
2022/06/02 07:26:39;;;;;;;2.67;1.42;;;15.90;99.90;;;-146.41;100.00;57768.22;5002089;28;20141;-69
2022/06/02 07:29:37;;;;;;;2.65;1.20;;;16.10;99.90;;;-146.41;100.00;57768.22;5005713;28;20077;-70
2022/06/02 07:32:26;;;;;;;2.78;1.52;;;16.30;99.90;;;-146.41;100.00;57768.22;5002957;28;20146;-69
2022/06/02 07:35:36;;;;;;;4.05;1.10;;;16.40;99.90;;;-146.41;100.00;57768.22;4988962;28;20137;-70
2022/06/02 07:38:38;;;;;;;3.05;1.42;;;16.40;99.90;;;-146.41;100.00;57768.22;5005178;28;20157;-69
2022/06/02 07:41:58;;;;;;;3.50;1.20;;;16.60;99.90;;;-146.41;100.00;57768.22;5004934;28;20098;-70
2022/06/02 07:45:03;;;;;;;3.88;1.38;;;16.70;99.90;;;-146.41;100.00;57768.22;5005960;28;20725;-69
2022/06/02 07:48:10;;;;;;;4.72;1.20;;;16.70;99.90;;;-146.41;100.00;57768.22;4986732;28;20137;-70
2022/06/02 07:50:48;;;;;;;4.65;1.20;;;16.70;99.90;;;-146.41;100.00;57768.22;5008725;28;20068;-69
2022/06/02 07:53:29;;;;;;;2.42;1.00;;;16.90;99.90;;;-146.41;100.00;57768.22;5004671;28;20074;-70
2022/06/02 07:56:21;;;;;;;1.60;0.90;;;17.10;99.90;;;-146.41;100.00;57768.22;4988064;28;20156;-70
2022/06/02 07:59:08;;;;;;;4.30;1.00;;;17.10;99.90;;;-146.41;100.00;57768.22;4987651;28;20083;-70
2022/06/02 08:02:27;;;;;;;4.80;1.55;;;17.30;99.90;;;-146.41;100.00;57768.22;5006537;28;20042;-70
2022/06/02 08:05:07;;;;;;;2.13;1.02;;;17.50;99.90;;;-146.41;100.00;57768.22;4977041;28;20050;-70
2022/06/02 08:07:43;;;;;;;3.08;0.93;;;17.70;99.90;;;-146.41;100.00;57768.22;4986183;28;20074;-69
2022/06/02 08:10:39;;;;;;;2.85;1.02;;;17.60;99.90;;;-146.41;100.00;57768.22;5007609;28;20533;-69
2022/06/02 08:13:34;;;;;;;2.03;0.80;;;17.80;99.90;;;-146.41;100.00;57768.22;4988586;28;20168;-70
2022/06/02 08:16:14;;;;;;;4.28;1.00;;;18.20;99.90;;;-146.41;100.00;57768.22;5012461;28;20144;-70
2022/06/02 08:19:02;;;;;;;3.63;1.02;;;18.30;99.90;;;-146.41;100.00;57768.22;5001642;28;20073;-69
2022/06/02 08:21:57;;;;;;;3.25;0.73;;;18.30;99.90;;;-146.41;100.00;57768.22;4996022;28;20164;-69
2022/06/02 08:25:02;;;;;;;3.70;0.80;;;18.40;99.70;;;-146.41;100.00;57768.22;4979049;28;20099;-69
2022/06/02 08:27:55;;;;;;;8.13;1.00;;;18.50;99.90;;;-146.41;100.00;57768.22;4987910;28;20053;-70
2022/06/02 08:30:29;;;;;;;;;;;18.70;99.60;;;-146.41;100.00;57768.22;5006834;28;20069;-70
2022/06/02 08:33:21;;;;;;;1.80;0.70;;;18.80;98.80;;;-146.41;100.00;57768.22;4986478;28;20398;-70
2022/06/02 08:36:05;;;;;;;5.30;0.97;;;18.80;97.90;;;-146.41;100.00;57768.22;5015912;28;20084;-70
2022/06/02 08:39:42;;;;;;;4.00;0.98;;;19.00;98.50;;;-146.41;100.00;57768.22;5006300;28;20304;-70
2022/06/02 08:42:44;;;;;;;2.97;0.90;;;19.00;98.90;;;-146.41;100.00;57768.22;4904641;29;20044;-70
2022/06/02 08:45:39;;;;;;;2.55;0.60;;;19.10;98.00;;;-146.41;100.00;57768.22;4905720;29;20070;-69
2022/06/02 08:48:56;;;;;;;3.00;0.70;;;19.40;97.80;;;-146.41;100.00;57768.22;5011027;28;20054;-69
2022/06/02 08:51:56;;;;;;;2.08;0.47;;;19.40;97.00;;;-146.41;100.00;57768.22;4888276;29;20812;-69
2022/06/02 08:54:29;;;;;;;3.17;0.90;;;19.70;96.40;;;-146.41;100.00;57768.22;4885615;29;20434;-69
2022/06/02 08:57:01;;;;;;;2.97;0.60;;;19.70;95.30;;;-146.41;100.00;57768.22;4984124;28;20122;-70
2022/06/02 09:00:02;;;;;;;1.58;0.80;;;19.70;93.90;;;-146.41;100.00;57768.22;4991810;28;20049;-69
2022/06/02 09:03:06;;;;;;;3.75;0.80;;;20.10;94.40;;;-146.41;100.00;57768.22;4987979;28;20435;-70
2022/06/02 09:05:42;;;;;;;1.40;0.70;;;20.00;95.00;;;-146.41;100.00;57768.22;5008516;28;20054;-69
2022/06/02 09:08:36;;;;;;;2.65;0.70;;;20.00;94.20;;;-146.41;100.00;57768.22;5007594;28;20139;-70
2022/06/02 09:11:22;;;;;;;2.92;0.90;;;19.80;95.20;;;-146.41;100.00;57768.22;5005010;28;21147;-70
2022/06/02 09:14:43;;;;;;;2.28;0.70;;;19.40;95.60;;;-146.41;100.00;57768.22;5005776;28;20050;-70
2022/06/02 09:18:10;;;;;;;2.97;0.90;;;19.60;95.20;;;-146.41;100.00;57768.22;4903986;29;20139;-69
2022/06/02 09:20:57;;;;;;;3.08;0.90;;;20.00;95.70;;;-146.41;100.00;57768.22;4939693;29;20446;-69
2022/06/02 09:23:57;;;;;;;3.63;1.10;;;20.40;94.40;;;-146.41;100.00;57768.22;4998989;28;20133;-69
2022/06/02 09:26:45;;;;;;;1.60;0.70;;;20.20;94.10;;;-146.41;100.00;57768.22;4985021;28;20085;-69
2022/06/02 09:29:38;;;;;;;2.80;0.75;;;20.30;94.30;;;-146.41;100.00;57768.22;5003907;28;20080;-69
2022/06/02 09:32:44;;;;;;;2.38;0.68;;;20.60;93.90;;;-146.41;100.00;57768.22;5002426;28;20046;-69
2022/06/02 09:35:29;;;;;;;3.35;0.73;;;21.20;93.20;;;-146.41;100.00;57768.22;4985968;28;20053;-70
2022/06/02 09:38:35;;;;;;;1.48;0.55;;;21.60;92.30;;;-146.41;100.00;57768.22;5007602;28;20442;-70
2022/06/02 09:41:43;;;;;;;5.57;0.90;;;22.10;91.80;;;-146.41;100.00;57768.22;4988567;28;20125;-69
2022/06/02 09:44:46;;;;;;;3.15;0.82;;;22.00;91.90;;;-146.41;100.00;57768.22;5002883;28;20046;-69
2022/06/02 09:47:52;;;;;;;5.38;0.80;;;21.90;91.20;;;-146.41;100.00;57768.22;5001165;28;20112;-69
2022/06/02 09:50:43;;;;;;;2.00;0.60;;;21.90;91.20;;;-146.41;100.00;57768.22;4991480;28;20941;-67
2022/06/02 09:53:51;;;;;;;2.47;0.80;;;22.00;90.70;;;-146.41;100.00;57768.22;5007546;28;20069;-69
2022/06/02 09:56:58;;;;;;;1.35;0.70;;;22.10;90.60;;;-146.41;100.00;57768.22;5008001;28;20058;-68
2022/06/02 09:59:38;;;;;;;3.83;0.80;;;21.90;90.60;;;-146.41;100.00;57768.22;4945713;28;20049;-70
2022/06/02 10:02:33;;;;;;;3.70;0.82;;;22.10;90.60;;;-146.41;100.00;57768.22;4999558;28;20077;-68
2022/06/02 10:05:25;;;;;;;2.88;0.57;;;22.20;90.00;;;-146.41;100.00;57768.22;5007920;28;20060;-70
2022/06/02 10:08:45;;;;;;;2.67;0.60;;;22.70;89.70;;;-146.41;100.00;57768.22;5001369;28;20092;-68
2022/06/02 10:11:36;;;;;;;3.13;0.80;;;;;;;-146.41;100.00;57768.22;5002424;28;20056;-69
2022/06/02 10:14:18;;;;;;;2.60;0.80;;;22.40;86.30;;;-146.41;100.00;57768.22;5003067;28;20434;-68
2022/06/02 10:17:09;;;;;;;;;;;22.70;86.70;;;-146.41;100.00;57768.22;5006720;28;20138;-69
2022/06/02 10:20:11;;;;;;;2.25;0.60;;;22.60;85.70;;;-146.41;100.00;57768.22;5001866;28;20498;-69
2022/06/02 10:23:22;;;;;;;1.80;0.90;;;22.90;87.40;;;-146.41;100.00;57768.22;5005649;28;20734;-68
2022/06/02 10:26:40;;;;;;;2.50;0.70;;;22.60;85.90;;;-146.41;100.00;57768.22;5004102;28;20125;-69
2022/06/02 10:30:03;;;;;;;2.90;0.77;;;23.20;85.90;;;-146.41;100.00;57768.22;5000656;28;20141;-69
2022/06/02 10:33:00;;;;;;;1.90;0.60;;;23.70;85.70;;;-146.41;100.00;57768.22;5008204;28;20058;-68
2022/06/02 10:36:05;;;;;;;3.38;0.70;;;23.90;84.80;;;-146.41;100.00;57768.22;5007225;28;20049;-68
2022/06/02 10:38:45;;;;;;;3.17;0.70;;;23.70;84.00;;;-146.41;100.00;57768.22;5007858;28;20137;-68
2022/06/02 10:41:54;;;;;;;3.70;0.70;;;24.00;84.50;;;-146.41;100.00;57768.22;4994936;28;20049;-65
2022/06/02 10:45:20;;;;;;;3.15;0.70;;;24.20;83.40;;;-146.41;100.00;57768.22;4954427;28;20046;-66
2022/06/02 10:48:08;;;;;;;3.70;0.80;;;23.30;81.70;;;-146.41;100.00;57768.22;4915399;29;20081;-68
2022/06/02 10:50:58;;;;;;;2.78;0.70;;;23.10;82.70;;;-146.41;100.00;57768.22;5009451;28;20582;-68
2022/06/02 10:54:10;;;;;;;2.40;0.55;;;23.40;82.30;;;-146.41;100.00;57768.22;4953985;28;20073;-68
2022/06/02 10:57:10;;;;;;;3.60;0.53;;;24.00;83.80;;;-146.41;100.00;57768.22;4963842;28;20503;-68
2022/06/02 11:00:08;;;;;;;3.70;0.93;;;24.30;81.00;;;-146.41;100.00;57768.22;4994438;28;20433;-68
2022/06/02 11:03:08;;;;;;;2.47;0.60;;;24.20;79.90;;;-146.41;100.00;57768.22;5007992;28;20705;-66
2022/06/02 11:06:31;;;;;;;3.38;0.55;;;23.90;79.80;;;-146.41;100.00;57768.22;5006312;28;20053;-66
2022/06/02 11:09:02;;;;;;;3.55;0.90;;;24.80;80.80;;;-146.41;100.00;57768.22;5002748;28;20045;-66
2022/06/02 11:12:01;;;;;;;1.85;0.50;;;25.00;78.50;;;-146.41;100.00;57768.22;5007645;28;20118;-67
2022/06/02 11:14:28;;;;;;;2.45;0.70;;;24.60;79.00;;;-146.41;100.00;57768.22;4990864;28;20107;-66
2022/06/02 11:17:11;;;;;;;2.75;0.77;;;25.00;79.50;;;-146.41;100.00;57768.22;5007106;28;20631;-66
2022/06/02 11:20:10;;;;;;;3.10;0.50;;;25.10;78.50;;;-146.41;100.00;57768.22;5010596;28;20508;-67
2022/06/02 11:23:04;;;;;;;2.47;0.60;;;25.30;78.40;;;-146.41;100.00;57768.22;4995577;28;20137;-67
2022/06/02 11:26:17;;;;;;;3.78;0.60;;;25.20;78.20;;;-146.41;100.00;57768.22;5013135;28;20435;-66
2022/06/02 11:29:20;;;;;;;2.95;0.60;;;25.00;77.50;;;-146.41;100.00;57768.22;5009778;28;20455;-67
2022/06/02 11:32:00;;;;;;;3.58;0.60;;;;;;;-146.41;100.00;57768.22;5007646;28;20120;-67
2022/06/02 11:34:59;;;;;;;2.25;0.68;;;24.10;97.30;;;-146.41;100.00;57768.22;5010536;28;20140;-66
2022/06/02 11:37:50;;;;;;;4.65;0.90;;;24.00;79.30;;;-146.41;100.00;57768.22;5012206;28;20128;-66
2022/06/02 11:40:57;;;;;;;2.40;0.70;;;24.20;79.40;;;-146.41;100.00;57768.22;5006902;28;20050;-66
2022/06/02 11:44:02;;;;;;;1.58;0.55;;;23.90;79.10;;;-146.41;100.00;57768.22;4988816;28;20165;-68
2022/06/02 11:46:53;;;;;;;2.40;0.70;;;23.40;80.30;;;-146.41;100.00;57768.22;5002730;28;20081;-66
2022/06/02 11:49:58;;;;;;;2.53;0.60;;;23.10;80.20;;;-146.41;100.00;57768.22;5009879;28;20077;-67
2022/06/02 11:53:06;;;;;;;2.35;0.57;;;23.20;81.10;;;-146.41;100.00;57768.22;5009859;28;20109;-69
2022/06/02 11:55:58;;;;;;;5.70;0.77;;;23.20;81.50;;;-146.41;100.00;57768.22;5011321;28;20099;-69
2022/06/02 11:58:37;;;;;;;;;;;23.00;81.80;;;-146.41;100.00;57768.22;4997917;28;20058;-71
2022/06/02 12:01:34;;;;;;;1.83;0.77;;;23.00;81.10;;;-146.41;100.00;57768.22;5012748;28;20004;-70